Beacon, New York
Current Conditions -  °F | °C
As of 12:45 AM on Monday 24 Nov 2014 (Local Time) from KSWF Reporting Station
Overcast Overcast  
Wind Chill:   Ceiling: 3000
Heat Index:   Visibility: 10mi
Dew Point:   Wind: 0mph
Humidity: 62%   Direction: NA
Pressure: 29.96"   Gusts: NA
Location:  41.5°N, 73.97°W
Report Text: KSWF 240545Z 00000KT 10SM OVC030 09/02 A2996
Loading
Personal Weather Stations






























Interactive Weather Map New forecast layout! Learn more

10-Day Weather Forecast

Advertisements
Track Severe Weather on mobile